Time;durP1;ratioP1;P1;durP2;ratioP2;P2;SDS_P1;SDS_P2;PMS_P1;PMS_P2;Temp;Humidity;BMP_temperature;BMP_pressure;BME280_temperature;BME280_humidity;BME280_pressure;Samples;Min_cycle;Max_cycle;Signal;HPM_P1;HPM_P2
2022/06/06 00:02:15;;;;;;;68.28;38.50;;;17.40;99.90;;;;;;5030988;28;20564;-81
2022/06/06 00:04:40;;;;;;;68.73;37.60;;;17.40;99.90;;;;;;5030989;28;20308;-81
2022/06/06 00:07:06;;;;;;;71.63;41.03;;;17.40;99.90;;;;;;5030327;28;20025;-81
2022/06/06 00:09:33;;;;;;;65.82;38.10;;;17.40;99.90;;;;;;5030542;28;20030;-81
2022/06/06 00:12:00;;;;;;;62.28;36.47;;;17.40;99.90;;;;;;5030931;28;20302;-81
2022/06/06 00:14:26;;;;;;;73.25;39.70;;;17.40;99.90;;;;;;5030645;28;20026;-80
2022/06/06 00:16:53;;;;;;;80.68;42.05;;;17.30;99.90;;;;;;5030580;28;20033;-81
2022/06/06 00:19:18;;;;;;;75.22;41.35;;;17.30;99.90;;;;;;5029356;28;20111;-81
2022/06/06 00:21:44;;;;;;;74.80;41.63;;;17.30;99.90;;;;;;5030638;28;20481;-81
2022/06/06 00:24:11;;;;;;;74.15;40.97;;;17.30;99.90;;;;;;5030532;28;20025;-81
2022/06/06 00:26:37;;;;;;;69.63;38.90;;;17.30;99.90;;;;;;5030441;28;20410;-81
2022/06/06 00:29:04;;;;;;;69.00;38.55;;;17.30;99.90;;;;;;5030472;28;20425;-80
2022/06/06 00:37:01;;;;;;;59.03;34.85;;;17.20;99.90;;;;;;5034360;28;20119;-81
2022/06/06 00:39:27;;;;;;;61.20;36.13;;;17.20;99.90;;;;;;5034344;28;20056;-82
2022/06/06 00:41:55;;;;;;;62.05;36.13;;;17.20;99.90;;;;;;5034467;28;20103;-81
2022/06/06 00:44:28;;;;;;;59.92;35.13;;;17.20;99.90;;;;;;5034653;28;20232;-81
2022/06/06 00:47:24;;;;;;;62.15;35.20;;;17.20;99.90;;;;;;5034088;28;20037;-82
2022/06/06 00:50:10;;;;;;;59.92;35.53;;;17.10;99.90;;;;;;5034230;28;20033;-82
2022/06/06 00:52:39;;;;;;;63.72;35.13;;;17.10;99.90;;;;;;5034295;28;20496;-81
2022/06/06 00:55:08;;;;;;;;;;;17.10;99.90;;;;;;5034801;28;20421;-81
2022/06/06 00:57:38;;;;;;;57.08;33.75;;;17.10;99.90;;;;;;5034393;28;19913;-81
2022/06/06 01:00:08;;;;;;;53.97;32.53;;;17.10;99.90;;;;;;5033960;28;20406;-82
2022/06/06 01:02:35;;;;;;;59.13;34.72;;;17.10;99.90;;;;;;5034239;28;20030;-81
2022/06/06 01:05:02;;;;;;;56.20;32.47;;;17.10;99.90;;;;;;5034081;28;20079;-81
2022/06/06 01:07:28;;;;;;;55.38;32.97;;;17.20;99.90;;;;;;5033510;28;20037;-82
2022/06/06 01:09:54;;;;;;;48.97;30.95;;;17.10;99.90;;;;;;5033597;28;20156;-82
2022/06/06 01:12:22;;;;;;;52.17;30.15;;;17.10;99.90;;;;;;5033814;28;20034;-82
2022/06/06 01:14:56;;;;;;;47.55;28.02;;;17.20;99.90;;;;;;5034075;28;20040;-82
2022/06/06 01:17:39;;;;;;;45.95;27.38;;;17.10;99.90;;;;;;5032426;28;20087;-82
2022/06/06 01:20:29;;;;;;;44.95;25.88;;;17.10;99.90;;;;;;5033600;28;20155;-82
2022/06/06 01:23:22;;;;;;;45.25;25.98;;;17.10;99.90;;;;;;5033867;28;20033;-82
2022/06/06 01:26:18;;;;;;;40.65;24.58;;;17.00;99.90;;;;;;5033537;28;20034;-82
2022/06/06 01:29:15;;;;;;;43.00;25.80;;;17.10;99.90;;;;;;5033395;28;20033;-82
2022/06/06 01:31:57;;;;;;;42.28;25.55;;;17.10;99.90;;;;;;5033643;28;20028;-82
2022/06/06 01:34:27;;;;;;;41.97;24.88;;;17.00;99.90;;;;;;5033596;28;20080;-82
2022/06/06 01:36:54;;;;;;;42.05;24.58;;;17.00;99.90;;;;;;5033641;28;20029;-82
2022/06/06 01:39:22;;;;;;;44.10;26.25;;;17.00;99.90;;;;;;5033192;28;20033;-82
2022/06/06 01:42:06;;;;;;;41.20;24.58;;;17.00;99.90;;;;;;5032129;28;20060;-82
2022/06/06 01:44:49;;;;;;;44.88;25.45;;;16.90;99.90;;;;;;5033491;28;20056;-82
2022/06/06 01:47:26;;;;;;;42.67;24.63;;;17.00;99.90;;;;;;5032884;28;20333;-82
2022/06/06 01:49:55;;;;;;;46.08;26.55;;;17.00;99.90;;;;;;5033067;28;20033;-82
2022/06/06 01:52:21;;;;;;;41.40;24.23;;;16.90;99.90;;;;;;5033205;28;20524;-82
2022/06/06 01:54:51;;;;;;;43.45;24.88;;;16.90;99.90;;;;;;5033141;28;20064;-82
2022/06/06 01:57:17;;;;;;;44.90;26.05;;;16.90;99.90;;;;;;5032841;28;20029;-82
2022/06/06 01:59:43;;;;;;;47.83;25.20;;;16.90;99.90;;;;;;5032908;28;20440;-82
2022/06/06 02:02:09;;;;;;;47.53;27.05;;;16.90;99.90;;;;;;5032924;28;20124;-82
2022/06/06 02:04:35;;;;;;;45.40;26.00;;;16.90;99.90;;;;;;5033076;28;20029;-82
2022/06/06 02:07:01;;;;;;;43.47;25.50;;;16.90;99.90;;;;;;5031404;28;20043;-82
2022/06/06 02:09:31;;;;;;;43.45;24.27;;;16.90;99.90;;;;;;5031412;28;20108;-81
2022/06/06 02:11:59;;;;;;;45.03;25.20;;;16.90;99.90;;;;;;5033320;28;20052;-81
2022/06/06 02:14:25;;;;;;;41.08;24.58;;;16.90;99.90;;;;;;5032788;28;20401;-81
2022/06/06 02:16:51;;;;;;;44.72;25.20;;;16.80;99.90;;;;;;5032633;28;20041;-82
2022/06/06 02:19:17;;;;;;;43.45;24.85;;;16.80;99.90;;;;;;5032869;28;20131;-81
2022/06/06 02:21:42;;;;;;;43.92;24.05;;;16.80;99.90;;;;;;5032565;28;20156;-81
2022/06/06 02:24:08;;;;;;;40.15;22.92;;;16.80;99.90;;;;;;5032691;28;20115;-81
2022/06/06 02:26:34;;;;;;;37.25;21.90;;;16.80;99.90;;;;;;5032285;28;20107;-82
2022/06/06 02:29:00;;;;;;;36.67;21.98;;;16.80;99.90;;;;;;5032323;28;20099;-82
2022/06/06 02:31:27;;;;;;;36.47;20.30;;;16.80;99.90;;;;;;5031115;28;20030;-81
2022/06/06 02:33:53;;;;;;;40.28;22.23;;;16.80;99.90;;;;;;5032635;28;20034;-82
2022/06/06 02:36:18;;;;;;;39.53;22.98;;;16.70;99.90;;;;;;5032360;28;20088;-82
2022/06/06 02:38:45;;;;;;;38.97;22.60;;;16.80;99.90;;;;;;5032118;28;20036;-82
2022/06/06 02:41:11;;;;;;;35.80;22.45;;;16.80;99.90;;;;;;5032355;28;20022;-82
2022/06/06 02:43:42;;;;;;;38.63;22.52;;;16.80;99.90;;;;;;5032195;28;20037;-82
2022/06/06 02:46:10;;;;;;;37.15;21.95;;;16.80;99.90;;;;;;5030611;28;20026;-81
2022/06/06 02:48:36;;;;;;;34.55;20.77;;;16.80;99.90;;;;;;5031934;28;20033;-82
2022/06/06 02:51:03;;;;;;;35.63;21.20;;;16.90;99.90;;;;;;5030912;28;20037;-82
2022/06/06 02:53:32;;;;;;;37.15;22.02;;;16.90;99.90;;;;;;5030755;28;20095;-82
2022/06/06 02:55:58;;;;;;;38.53;21.92;;;16.90;99.90;;;;;;5030654;28;20032;-82
2022/06/06 02:58:26;;;;;;;40.90;23.98;;;16.90;99.90;;;;;;5031312;28;20029;-82
2022/06/06 03:01:04;;;;;;;43.97;23.23;;;16.90;99.90;;;;;;5031679;28;20026;-82
2022/06/06 03:03:31;;;;;;;35.78;22.00;;;16.90;99.90;;;;;;5032078;28;20033;-82
2022/06/06 03:06:09;;;;;;;37.58;21.58;;;17.00;99.90;;;;;;5030430;28;20029;-82
2022/06/06 03:08:51;;;;;;;37.97;22.08;;;16.90;99.90;;;;;;5031397;28;20107;-82
2022/06/06 03:11:45;;;;;;;37.97;21.65;;;17.00;99.90;;;;;;5031768;28;20060;-82
2022/06/06 03:14:42;;;;;;;36.92;22.17;;;17.00;99.90;;;;;;5031706;28;20052;-82
2022/06/06 03:20:50;;;;;;;30.75;19.48;;;17.00;99.90;;;;;;5031419;28;20037;-82
2022/06/06 03:23:20;;;;;;;31.17;18.20;;;17.00;99.90;;;;;;5031021;28;20045;-82
2022/06/06 03:26:11;;;;;;;35.08;18.08;;;17.00;99.90;;;;;;5031266;28;20068;-82
2022/06/06 03:28:37;;;;;;;24.60;15.35;;;17.00;99.90;;;;;;5031258;28;20048;-82
2022/06/06 03:31:26;;;;;;;25.42;15.30;;;17.00;99.90;;;;;;5031238;28;20025;-82
2022/06/06 03:34:32;;;;;;;22.25;13.77;;;17.00;99.90;;;;;;5031795;28;20029;-82
2022/06/06 03:37:19;;;;;;;24.88;13.45;;;17.00;99.90;;;;;;4969666;28;20038;-82
2022/06/06 03:40:01;;;;;;;20.35;12.98;;;17.00;99.90;;;;;;5024134;28;20041;-81
2022/06/06 03:42:30;;;;;;;24.60;13.18;;;17.00;99.90;;;;;;5029979;28;20041;-81
2022/06/06 03:45:17;;;;;;;20.50;12.02;;;17.00;99.90;;;;;;5031368;28;20029;-81
2022/06/06 03:48:09;;;;;;;22.30;12.13;;;17.00;99.90;;;;;;5030746;28;20030;-81
2022/06/06 03:50:47;;;;;;;22.63;11.10;;;17.00;99.90;;;;;;5031159;28;20120;-81
2022/06/06 03:53:26;;;;;;;16.63;10.40;;;17.00;99.90;;;;;;5031269;28;20029;-81
2022/06/06 03:56:04;;;;;;;18.92;11.48;;;17.00;99.90;;;;;;5029800;28;20036;-81
2022/06/06 03:58:33;;;;;;;17.55;10.40;;;17.00;99.90;;;;;;5031317;28;20030;-81
2022/06/06 04:01:04;;;;;;;17.10;11.05;;;17.00;99.90;;;;;;5030847;28;20025;-80
2022/06/06 04:03:32;;;;;;;17.80;11.43;;;17.00;99.90;;;;;;5029695;28;20336;-81
2022/06/06 04:06:01;;;;;;;20.53;11.70;;;17.00;99.90;;;;;;5030746;28;20105;-81
2022/06/06 04:08:27;;;;;;;17.58;10.18;;;16.90;99.90;;;;;;5030580;28;20284;-80
2022/06/06 04:11:14;;;;;;;19.55;10.90;;;17.00;99.90;;;;;;5029761;28;20025;-80
2022/06/06 04:14:00;;;;;;;19.75;11.38;;;17.00;99.90;;;;;;5030734;28;20041;-80
2022/06/06 04:16:43;;;;;;;19.35;10.15;;;17.00;99.90;;;;;;5030508;28;20029;-80
2022/06/06 04:19:14;;;;;;;17.73;10.57;;;17.00;99.90;;;;;;5030575;28;20044;-80
2022/06/06 04:21:49;;;;;;;16.85;10.43;;;17.00;99.90;;;;;;5030490;28;20083;-80
2022/06/06 04:24:47;;;;;;;16.02;9.25;;;16.90;99.90;;;;;;5030705;28;20473;-80
2022/06/06 04:27:18;;;;;;;16.13;9.80;;;17.00;99.90;;;;;;4997234;28;20240;-80
2022/06/06 04:29:44;;;;;;;15.98;10.00;;;17.00;99.90;;;;;;5030338;28;20032;-80
2022/06/06 04:32:40;;;;;;;20.17;11.10;;;17.00;99.90;;;;;;5030521;28;20432;-80
2022/06/06 04:35:14;;;;;;;16.40;10.23;;;17.00;99.90;;;;;;5030745;28;20034;-80
2022/06/06 04:38:01;;;;;;;18.17;10.10;;;17.00;99.90;;;;;;5030225;28;20033;-80
2022/06/06 04:40:36;;;;;;;20.63;12.43;;;17.00;99.90;;;;;;5028954;28;20453;-81
2022/06/06 04:43:39;;;;;;;20.42;13.40;;;17.00;99.90;;;;;;5030564;28;20029;-80
2022/06/06 04:46:18;;;;;;;18.95;11.15;;;16.90;99.90;;;;;;5030336;28;20033;-80
2022/06/06 04:48:46;;;;;;;16.80;10.82;;;17.00;99.90;;;;;;5030263;28;20452;-80
2022/06/06 04:51:16;;;;;;;15.18;9.65;;;17.00;99.90;;;;;;5030282;28;20492;-81
2022/06/06 04:53:46;;;;;;;17.80;10.48;;;16.90;99.90;;;;;;5030474;28;20025;-80
2022/06/06 04:56:15;;;;;;;14.50;9.15;;;16.90;99.90;;;;;;5030114;28;20044;-80
2022/06/06 04:58:42;;;;;;;;;;;16.90;99.90;;;;;;5030989;28;20025;-80
2022/06/06 05:01:10;;;;;;;14.52;8.82;;;16.90;99.90;;;;;;5030249;28;20311;-80
2022/06/06 05:03:36;;;;;;;17.30;10.05;;;16.90;99.90;;;;;;5029106;28;20037;-81
2022/06/06 05:06:01;;;;;;;13.80;9.13;;;17.00;99.90;;;;;;5030047;28;20462;-81
2022/06/06 05:08:42;;;;;;;17.73;10.68;;;17.00;99.90;;;;;;5044897;22;20529;-89
2022/06/06 05:11:55;;;;;;;16.58;9.02;;;17.00;99.90;;;;;;5029091;28;20026;-88
2022/06/06 05:14:33;;;;;;;14.57;8.50;;;17.00;99.90;;;;;;5017779;28;20132;-88
2022/06/06 05:17:36;;;;;;;17.00;9.00;;;17.00;99.90;;;;;;5030028;28;20036;-87
2022/06/06 05:20:30;;;;;;;13.80;7.82;;;17.00;99.90;;;;;;5028728;28;20041;-87
2022/06/06 05:23:10;;;;;;;13.45;8.57;;;16.90;99.90;;;;;;5032404;28;20048;-87
2022/06/06 05:26:06;;;;;;;13.57;8.60;;;17.00;99.90;;;;;;5032388;28;20444;-87
2022/06/06 05:28:50;;;;;;;12.23;7.60;;;16.90;99.90;;;;;;4979526;28;20508;-88
2022/06/06 05:31:36;;;;;;;13.68;8.60;;;16.90;99.90;;;;;;5033723;28;20490;-87
2022/06/06 05:34:05;;;;;;;12.48;7.97;;;16.80;99.90;;;;;;5033627;28;20502;-87
2022/06/06 05:37:00;;;;;;;16.65;9.50;;;16.80;99.90;;;;;;5033496;28;20064;-87
2022/06/06 05:39:55;;;;;;;13.90;8.18;;;16.80;99.90;;;;;;5032338;28;20030;-88
2022/06/06 05:42:45;;;;;;;13.45;7.80;;;16.80;99.90;;;;;;5021458;28;20124;-88
2022/06/06 05:45:35;;;;;;;14.57;8.55;;;16.80;99.90;;;;;;5032461;28;20079;-88
2022/06/06 05:48:12;;;;;;;14.13;8.15;;;16.90;99.90;;;;;;5033516;28;20029;-88
2022/06/06 05:51:09;;;;;;;13.40;7.55;;;16.90;99.90;;;;;;5033130;28;20383;-88
2022/06/06 05:53:55;;;;;;;12.00;7.22;;;16.90;99.90;;;;;;5033525;28;20118;-86
2022/06/06 05:56:31;;;;;;;15.35;9.43;;;17.00;99.90;;;;;;5031996;28;20474;-87
2022/06/06 05:59:14;;;;;;;14.20;7.95;;;17.00;99.90;;;;;;5031684;28;20497;-86
2022/06/06 06:02:00;;;;;;;12.63;7.57;;;17.00;99.90;;;;;;5033235;28;20033;-87
2022/06/06 06:04:34;;;;;;;12.38;6.75;;;17.00;99.90;;;;;;5031875;28;20394;-87
2022/06/06 06:07:25;;;;;;;14.15;8.05;;;17.00;99.90;;;;;;5032634;28;20026;-88
2022/06/06 06:10:13;;;;;;;14.90;7.95;;;17.10;99.90;;;;;;5015129;28;20099;-87
2022/06/06 06:12:47;;;;;;;13.43;6.93;;;17.10;99.90;;;;;;5033241;28;20057;-87
2022/06/06 06:15:34;;;;;;;13.07;6.53;;;17.10;99.90;;;;;;5033066;28;20394;-87
2022/06/06 06:18:03;;;;;;;10.80;6.65;;;17.10;99.90;;;;;;5031402;28;20045;-87
2022/06/06 06:20:36;;;;;;;13.57;6.68;;;17.10;99.90;;;;;;5031573;28;20504;-87
2022/06/06 06:23:11;;;;;;;10.40;5.80;;;17.20;99.90;;;;;;5031484;28;20037;-87
2022/06/06 06:25:39;;;;;;;8.25;5.25;;;17.20;99.90;;;;;;5032557;28;20041;-87
2022/06/06 06:28:10;;;;;;;8.80;5.22;;;17.20;99.90;;;;;;5031180;28;20410;-87
2022/06/06 06:31:00;;;;;;;9.50;4.93;;;17.20;99.90;;;;;;5031363;28;20034;-87
2022/06/06 06:33:47;;;;;;;9.70;5.15;;;17.30;99.90;;;;;;5030529;28;20045;-87
2022/06/06 06:36:26;;;;;;;7.43;4.60;;;17.20;99.90;;;;;;5031074;28;20091;-87
2022/06/06 06:39:23;;;;;;;10.43;4.78;;;17.30;99.90;;;;;;5031095;28;20030;-87
2022/06/06 06:42:12;;;;;;;10.15;5.50;;;17.20;99.90;;;;;;5032335;28;20052;-87
2022/06/06 06:44:47;;;;;;;11.48;7.00;;;17.30;99.90;;;;;;5031095;28;20109;-87
2022/06/06 06:47:29;;;;;;;11.13;7.00;;;17.20;99.90;;;;;;5031807;28;20088;-87
2022/06/06 06:50:15;;;;;;;11.35;5.50;;;17.20;99.90;;;;;;5030732;28;20029;-87
2022/06/06 06:52:43;;;;;;;8.07;4.70;;;17.20;99.90;;;;;;5030920;28;20060;-87
2022/06/06 06:55:25;;;;;;;10.00;4.28;;;17.20;99.90;;;;;;5032104;28;20052;-87
2022/06/06 06:58:30;;;;;;;10.18;4.80;;;17.20;99.90;;;;;;5032101;28;20040;-87
2022/06/06 07:01:03;;;;;;;7.73;4.40;;;17.20;99.90;;;;;;5030792;28;20489;-87
2022/06/06 07:09:49;;;;;;;5.57;3.60;;;17.40;99.90;;;;;;5031548;28;20124;-86
2022/06/06 07:12:55;;;;;;;6.78;4.70;;;17.40;99.90;;;;;;5031713;28;20036;-87
2022/06/06 07:15:36;;;;;;;6.43;4.00;;;17.40;99.90;;;;;;5032068;28;20025;-87
2022/06/06 07:18:04;;;;;;;7.60;4.22;;;17.40;99.90;;;;;;5031630;28;20056;-87
2022/06/06 07:20:33;;;;;;;5.55;3.63;;;17.50;99.90;;;;;;5031351;28;20482;-87
2022/06/06 07:23:09;;;;;;;6.60;3.85;;;17.50;99.90;;;;;;5031624;28;20033;-87
2022/06/06 07:25:44;;;;;;;6.13;3.40;;;17.50;99.90;;;;;;5030320;28;20496;-87
2022/06/06 07:28:18;;;;;;;5.88;3.33;;;17.50;99.90;;;;;;5031285;28;20394;-87
2022/06/06 07:31:03;;;;;;;6.70;3.65;;;17.50;99.90;;;;;;5031187;28;20513;-86
2022/06/06 07:33:31;;;;;;;5.88;2.83;;;17.50;99.90;;;;;;5030129;28;20090;-87
2022/06/06 07:36:17;;;;;;;6.18;2.88;;;17.60;99.90;;;;;;5029957;28;20493;-86
2022/06/06 07:39:10;;;;;;;5.65;2.55;;;17.60;99.90;;;;;;5031057;28;20144;-87
2022/06/06 07:42:03;;;;;;;5.07;2.60;;;17.60;99.90;;;;;;5031527;28;20029;-88
2022/06/06 07:45:02;;;;;;;6.18;2.50;;;17.60;99.90;;;;;;5030225;28;20040;-88
2022/06/06 07:47:52;;;;;;;4.45;2.55;;;17.70;99.90;;;;;;5030767;28;20083;-88
2022/06/06 07:50:25;;;;;;;5.47;2.15;;;17.70;99.90;;;;;;5029699;28;20029;-87
2022/06/06 07:52:55;;;;;;;3.65;2.17;;;17.70;99.90;;;;;;5031281;28;20097;-88
2022/06/06 07:55:26;;;;;;;4.03;2.20;;;17.70;99.90;;;;;;5031352;28;20372;-88
2022/06/06 07:58:25;;;;;;;5.03;2.10;;;17.70;99.90;;;;;;5029474;28;20048;-90
2022/06/06 08:01:10;;;;;;;5.18;2.00;;;17.60;99.90;;;;;;5019007;28;20164;-87
2022/06/06 08:03:50;;;;;;;4.75;2.42;;;17.70;99.90;;;;;;5029809;28;20045;-87
2022/06/06 08:06:33;;;;;;;5.25;2.58;;;17.70;99.90;;;;;;5030539;28;20119;-87
2022/06/06 08:09:25;;;;;;;5.45;2.55;;;17.80;99.90;;;;;;5029335;28;20036;-87
2022/06/06 08:12:03;;;;;;;6.90;3.20;;;17.80;99.80;;;;;;5030901;28;20607;-87
2022/06/06 08:14:29;;;;;;;3.58;2.00;;;17.80;99.70;;;;;;5030903;28;20044;-87
2022/06/06 08:17:25;;;;;;;5.25;2.30;;;17.90;99.20;;;;;;5029225;28;20622;-88
2022/06/06 08:20:10;;;;;;;6.57;2.63;;;17.90;98.70;;;;;;5030535;28;20064;-88
2022/06/06 08:22:42;;;;;;;3.28;1.90;;;18.00;98.00;;;;;;5029404;28;20057;-87
2022/06/06 08:25:11;;;;;;;5.28;1.80;;;18.00;97.50;;;;;;5029353;28;20045;-87
2022/06/06 08:27:39;;;;;;;4.03;1.50;;;18.10;97.10;;;;;;5030551;28;20087;-87
2022/06/06 08:30:05;;;;;;;2.85;1.20;;;18.20;97.00;;;;;;5012837;28;20025;-88
2022/06/06 08:32:32;;;;;;;3.45;1.40;;;18.20;96.80;;;;;;5030770;28;20044;-88
2022/06/06 08:34:58;;;;;;;8.15;4.80;;;18.20;96.50;;;;;;5029303;28;20390;-86
2022/06/06 08:37:42;;;;;;;5.82;3.05;;;18.20;96.70;;;;;;5029040;28;20040;-87
2022/06/06 08:40:13;;;;;;;4.05;1.90;;;18.20;96.80;;;;;;5029020;28;20121;-88
2022/06/06 08:42:56;;;;;;;4.20;1.63;;;18.20;96.90;;;;;;5030646;28;20056;-87
2022/06/06 08:45:48;;;;;;;4.15;2.00;;;18.20;97.10;;;;;;5012899;28;20103;-87
2022/06/06 08:48:33;;;;;;;4.25;1.95;;;18.10;97.40;;;;;;4976032;28;20045;-87
2022/06/06 08:51:29;;;;;;;3.45;1.70;;;18.10;97.40;;;;;;5030381;28;20025;-88
2022/06/06 08:54:07;;;;;;;4.63;2.30;;;18.20;97.20;;;;;;5030431;28;20029;-88
2022/06/06 08:56:42;;;;;;;3.58;1.50;;;18.20;97.40;;;;;;5031664;28;20061;-88
2022/06/06 08:59:23;;;;;;;2.50;1.38;;;18.20;97.60;;;;;;5034264;28;20040;-86
2022/06/06 09:02:38;;;;;;;3.80;1.50;;;18.30;97.50;;;;;;5034258;28;20044;-88
2022/06/06 09:05:19;;;;;;;3.17;1.20;;;18.30;97.20;;;;;;5034336;28;20068;-87
2022/06/06 09:08:26;;;;;;;2.47;1.38;;;18.30;97.20;;;;;;5033736;28;20036;-87
2022/06/06 09:11:09;;;;;;;2.72;1.35;;;18.30;97.40;;;;;;5032514;28;20425;-88
2022/06/06 09:14:20;;;;;;;28.40;1.83;;;18.30;97.40;;;;;;5034052;28;20473;-88
2022/06/06 09:17:23;;;;;;;2.40;1.27;;;18.20;97.40;;;;;;4999834;28;20038;-87
2022/06/06 09:20:10;;;;;;;3.90;1.15;;;18.30;97.30;;;;;;5033741;28;20057;-87
2022/06/06 09:23:08;;;;;;;3.40;1.15;;;18.30;97.50;;;;;;5032637;28;20072;-87
2022/06/06 09:25:55;;;;;;;2.75;1.60;;;18.40;97.50;;;;;;5033881;28;20033;-87
2022/06/06 09:28:24;;;;;;;3.85;1.63;;;18.40;97.30;;;;;;5032254;28;20515;-87
2022/06/06 09:31:12;;;;;;;3.45;1.67;;;18.40;97.30;;;;;;5015799;28;20029;-88
2022/06/06 09:33:51;;;;;;;4.30;1.67;;;18.40;97.20;;;;;;5032436;28;20033;-87
2022/06/06 09:36:32;;;;;;;2.17;1.20;;;18.40;97.20;;;;;;5033587;28;20359;-88
2022/06/06 09:39:13;;;;;;;2.67;1.10;;;18.50;96.90;;;;;;5033313;28;20083;-88
2022/06/06 09:41:57;;;;;;;9.20;1.25;;;18.50;96.50;;;;;;5015660;28;20029;-88
2022/06/06 09:44:50;;;;;;;1.90;0.90;;;18.50;96.20;;;;;;5032182;28;20025;-88
2022/06/06 09:47:29;;;;;;;2.20;1.20;;;18.60;96.00;;;;;;5031878;28;20032;-87
2022/06/06 09:50:22;;;;;;;2.92;1.10;;;18.60;95.80;;;;;;5033184;28;20029;-87
2022/06/06 09:53:08;;;;;;;2.80;1.27;;;18.60;95.90;;;;;;5033359;28;20025;-86
2022/06/06 09:59:02;;;;;;;2.88;1.20;;;18.60;95.90;;;;;;5031659;28;20406;-88
2022/06/06 10:02:06;;;;;;;2.42;1.05;;;18.70;95.90;;;;;;5032092;28;20056;-88
2022/06/06 10:05:21;;;;;;;3.85;1.15;;;18.80;95.20;;;;;;5033250;28;20025;-87
2022/06/06 10:07:49;;;;;;;3.72;1.40;;;18.80;95.00;;;;;;5010103;28;20050;-87
2022/06/06 10:10:42;;;;;;;2.80;0.93;;;18.80;95.20;;;;;;5031803;28;20043;-88
2022/06/06 10:13:22;;;;;;;2.38;1.08;;;18.80;95.20;;;;;;5032853;28;20112;-88
2022/06/06 10:15:55;;;;;;;3.15;1.10;;;18.70;95.00;;;;;;5032765;28;20037;-87
2022/06/06 10:18:40;;;;;;;2.65;0.98;;;18.70;95.10;;;;;;5032683;28;20029;-87
2022/06/06 10:21:27;;;;;;;5.63;1.50;;;18.60;95.30;;;;;;5031372;28;20037;-88
2022/06/06 10:24:31;;;;;;;4.38;1.67;;;18.60;95.50;;;;;;5032717;28;20029;-87
2022/06/06 10:27:01;;;;;;;3.05;1.70;;;18.70;95.50;;;;;;5032365;28;20096;-87
2022/06/06 10:32:58;;;;;;;3.65;1.50;;;18.80;95.10;;;;;;5032818;28;20091;-88
2022/06/06 10:35:26;;;;;;;4.45;1.20;;;18.90;95.30;;;;;;5032523;28;20064;-88
2022/06/06 10:37:59;;;;;;;2.80;1.15;;;19.00;95.00;;;;;;5030883;28;20478;-88
2022/06/06 10:40:46;;;;;;;3.17;1.30;;;19.10;93.80;;;;;;5032079;28;20536;-88
2022/06/06 10:43:14;;;;;;;3.38;1.20;;;19.30;93.30;;;;;;5032273;28;20071;-87
2022/06/06 10:45:52;;;;;;;4.07;1.40;;;19.40;92.70;;;;;;5014647;28;20028;-88
2022/06/06 10:48:27;;;;;;;3.75;1.20;;;19.50;93.60;;;;;;5032139;28;20030;-87
2022/06/06 10:54:30;;;;;;;5.90;1.10;;;19.30;92.90;;;;;;5032251;28;20402;-87
2022/06/06 10:57:29;;;;;;;3.42;1.00;;;19.20;93.50;;;;;;5030579;28;20044;-87
2022/06/06 11:00:18;;;;;;;2.00;0.80;;;18.90;94.10;;;;;;5031755;28;20037;-87
2022/06/06 11:02:52;;;;;;;1.42;0.82;;;18.50;96.00;;;;;;5032277;28;20033;-88
2022/06/06 11:05:36;;;;;;;3.28;1.10;;;18.20;96.90;;;;;;5030620;28;20482;-88
2022/06/06 11:08:08;;;;;;;4.10;1.00;;;18.10;98.30;;;;;;5046192;22;20049;-82
2022/06/06 11:11:02;;;;;;;2.28;1.00;;;18.00;98.30;;;;;;5029947;28;20053;-82
2022/06/06 11:13:52;;;;;;;1.58;1.00;;;17.90;98.40;;;;;;5031794;28;20037;-82
2022/06/06 11:16:44;;;;;;;2.95;1.00;;;17.80;99.00;;;;;;5031537;28;20458;-82
2022/06/06 11:19:40;;;;;;;4.55;1.80;;;17.60;99.90;;;;;;5030993;28;20539;-82
2022/06/06 11:22:46;;;;;;;3.20;1.10;;;17.50;99.90;;;;;;5031498;28;20099;-82
2022/06/06 11:25:21;;;;;;;3.40;1.27;;;17.50;99.90;;;;;;5028390;28;20037;-82
2022/06/06 11:28:20;;;;;;;3.50;1.25;;;17.50;99.90;;;;;;5031221;28;20091;-82
2022/06/06 11:31:23;;;;;;;3.10;1.35;;;17.60;99.90;;;;;;5029972;28;20393;-82
2022/06/06 11:34:10;;;;;;;1.95;1.30;;;17.60;99.90;;;;;;5031292;28;20478;-82
2022/06/06 11:37:09;;;;;;;2.95;1.20;;;17.60;99.90;;;;;;5029915;28;20077;-82
2022/06/06 11:40:14;;;;;;;3.72;1.73;;;17.70;99.90;;;;;;5031303;28;20021;-82
2022/06/06 11:43:00;;;;;;;2.65;1.27;;;17.70;99.90;;;;;;5029863;28;20651;-82
2022/06/06 11:45:31;;;;;;;5.43;2.20;;;17.80;99.90;;;;;;5020464;28;20457;-82
2022/06/06 11:48:34;;;;;;;9.65;2.45;;;17.90;99.90;;;;;;5030827;28;20470;-82
2022/06/06 11:51:30;;;;;;;7.50;3.15;;;18.00;99.90;;;;;;5031087;28;20061;-82
2022/06/06 11:54:14;;;;;;;11.05;4.65;;;18.20;99.90;;;;;;5031074;28;20086;-82
2022/06/06 11:56:46;;;;;;;8.32;3.22;;;18.30;99.90;;;;;;5031096;28;20051;-82
2022/06/06 11:59:29;;;;;;;7.20;2.20;;;18.40;99.90;;;;;;5029414;28;20397;-82
2022/06/06 12:02:28;;;;;;;3.88;1.83;;;18.50;99.90;;;;;;5030806;28;20025;-82
2022/06/06 12:04:54;;;;;;;;;;;18.60;99.90;;;;;;5031310;28;20072;-82
2022/06/06 12:07:34;;;;;;;2.42;1.05;;;18.60;99.80;;;;;;5030393;28;19963;-82
2022/06/06 12:10:21;;;;;;;3.67;1.42;;;18.70;99.70;;;;;;5030532;28;20408;-82
2022/06/06 12:13:11;;;;;;;3.78;1.40;;;18.90;99.90;;;;;;5030921;28;20029;-82
2022/06/06 12:16:22;;;;;;;1.52;1.00;;;19.00;99.90;;;;;;5030544;28;20037;-82
2022/06/06 12:18:58;;;;;;;2.92;1.40;;;19.20;98.30;;;;;;5015172;28;20503;-82
2022/06/06 12:21:44;;;;;;;2.65;1.23;;;19.30;97.00;;;;;;5030970;28;20466;-82
2022/06/06 12:24:31;;;;;;;3.13;1.50;;;19.50;97.30;;;;;;5030701;28;20026;-82
2022/06/06 12:27:24;;;;;;;4.43;1.50;;;19.70;95.50;;;;;;5029249;28;20033;-82
2022/06/06 12:30:07;;;;;;;2.97;1.63;;;19.90;94.60;;;;;;5030472;28;20083;-82
2022/06/06 12:32:47;;;;;;;3.42;1.52;;;19.90;94.20;;;;;;5033792;28;20101;-82
2022/06/06 12:35:40;;;;;;;5.57;1.88;;;19.90;94.10;;;;;;5034751;28;20068;-82
2022/06/06 12:38:15;;;;;;;3.53;1.27;;;19.70;94.40;;;;;;5034846;28;20091;-82
2022/06/06 12:41:11;;;;;;;2.78;1.35;;;19.70;94.60;;;;;;5034381;28;20029;-82
2022/06/06 12:43:44;;;;;;;5.53;2.00;;;19.60;95.20;;;;;;5034513;28;20520;-82
2022/06/06 12:46:35;;;;;;;4.28;1.50;;;19.60;95.70;;;;;;5034509;28;20312;-82
2022/06/06 12:49:00;;;;;;;5.53;1.45;;;19.80;95.50;;;;;;5034177;28;20037;-82
2022/06/06 12:51:47;;;;;;;3.78;1.58;;;20.00;95.70;;;;;;5034388;28;20036;-82
2022/06/06 12:54:30;;;;;;;3.25;1.38;;;20.00;95.50;;;;;;5034503;28;20037;-81
2022/06/06 12:57:04;;;;;;;2.70;1.13;;;20.10;95.40;;;;;;5034236;28;20087;-82
2022/06/06 12:59:44;;;;;;;2.63;1.25;;;20.20;95.30;;;;;;5034109;28;20120;-82
2022/06/06 13:02:21;;;;;;;4.93;1.50;;;20.20;95.40;;;;;;5034151;28;20109;-82
2022/06/06 13:05:02;;;;;;;2.75;1.20;;;20.40;93.60;;;;;;5032919;28;20056;-82
2022/06/06 13:07:43;;;;;;;1.60;0.90;;;20.50;93.30;;;;;;5033853;28;20061;-82
2022/06/06 13:10:38;;;;;;;1.80;0.90;;;20.60;93.40;;;;;;5033892;28;20025;-82
2022/06/06 13:13:31;;;;;;;5.07;1.17;;;20.70;90.70;;;;;;5034200;28;20029;-82
2022/06/06 13:16:34;;;;;;;1.98;1.00;;;20.70;89.30;;;;;;5034138;28;20040;-82
2022/06/06 13:19:22;;;;;;;2.63;1.00;;;20.60;87.30;;;;;;5032362;28;20125;-82
2022/06/06 13:22:01;;;;;;;4.00;1.07;;;20.60;85.00;;;;;;5034032;28;20033;-82
2022/06/06 13:24:42;;;;;;;;;;;20.60;86.10;;;;;;5034247;28;20111;-82
2022/06/06 13:27:15;;;;;;;3.75;1.90;;;20.60;87.00;;;;;;5033602;28;19921;-82
2022/06/06 13:29:41;;;;;;;4.47;1.40;;;20.60;86.80;;;;;;5033472;28;20037;-81
2022/06/06 13:32:17;;;;;;;4.35;0.93;;;20.60;88.30;;;;;;5033734;28;20040;-81
2022/06/06 13:35:14;;;;;;;2.95;1.20;;;20.60;87.10;;;;;;5033627;28;20029;-81
2022/06/06 13:38:21;;;;;;;2.88;1.20;;;20.60;87.00;;;;;;5033389;28;20072;-82
2022/06/06 13:40:59;;;;;;;3.22;1.40;;;20.70;84.60;;;;;;5032222;28;20044;-82
2022/06/06 13:43:59;;;;;;;3.47;1.20;;;20.70;83.80;;;;;;5033322;28;20037;-82
2022/06/06 13:46:45;;;;;;;3.28;1.00;;;20.80;83.60;;;;;;5025104;28;20037;-82
2022/06/06 13:49:36;;;;;;;6.38;2.38;;;20.90;82.40;;;;;;5033186;28;20469;-80
2022/06/06 13:52:17;;;;;;;5.47;1.75;;;21.10;82.00;;;;;;5033307;28;20034;-81
2022/06/06 13:54:43;;;;;;;2.03;1.00;;;21.30;80.50;;;;;;5031869;28;20140;-81
2022/06/06 13:57:20;;;;;;;1.95;1.00;;;21.50;79.20;;;;;;5032992;28;20260;-82
2022/06/06 14:00:25;;;;;;;2.40;1.00;;;21.60;78.60;;;;;;5032850;28;20470;-81
2022/06/06 14:03:19;;;;;;;5.00;1.30;;;21.70;80.10;;;;;;5033118;28;20033;-81
2022/06/06 14:06:06;;;;;;;3.65;1.17;;;21.70;78.30;;;;;;5032997;28;20041;-82
2022/06/06 14:08:50;;;;;;;2.87;1.40;;;21.60;79.30;;;;;;5032587;28;20030;-81
2022/06/06 14:11:51;;;;;;;5.05;1.10;;;21.40;79.60;;;;;;5032928;28;20033;-82
2022/06/06 14:14:20;;;;;;;2.97;1.15;;;21.30;79.90;;;;;;5031894;28;20109;-81